Laurent Verva

Laurent Verva

Statistiques 2026

  • Courses courues : 42
  • Nb de victoires : -
  • Nb de places : 1
  • Écart gagnant : 143
  • Réussite à la gagne : -
  • Réussite à la place : 2%
Musique : 0a 8a 4a 6a 6a 0a 5a 5a Da 2a 9a 6a 5a Da 6a 0a 7a 4a
DateRangCatégorieAlloc.Dist.HippodromeChevalRed. KmSpé.
03/04/18 7 Trot 19 000€ 2 400m Amiens Elektra Syga 1'18"9 Attelé
03/04/18 D Trot 21 000€ 2 400m Amiens Eros de Godrel Attelé
03/04/18 6 Trot 21 000€ 2 400m Amiens Didji Boy 1'17"2 Attelé
08/04/18 4 Trot 35 000€ 2 875m Mauquenchy Anais d'Olaine 1'14"6 Attelé
08/04/18 7 Trot 21 000€ 2 850m Mauquenchy Drakkar Burois 1'17"4 Attelé
09/04/18 D Trot 30 000€ 2 600m Reims Viva Well Attelé
09/04/18 5 Trot 21 000€ 2 600m Reims Au Temps Dubonheur 1'14"3 Attelé
09/04/18 4 Trot 20 000€ 2 600m Reims Etoile Dubonheur 1'16"9 Attelé
13/04/18 0 Trot 48 000€ 2 850m Vincennes As de Godisson Attelé lire

Principal animateur, s'est mis aux pas dans le tournant final.

14/04/18 4 Trot 20 000€ 2 850m Le Croise Laroche Capac 1'15"0 Attelé
14/04/18 9 Trot 21 000€ 2 700m Le Croise Laroche Elisee du Pont 1'21"2 Attelé
14/04/18 7 Trot 20 000€ 2 825m Le Croise Laroche Fayette Tilly 1'19"4 Attelé
16/04/18 D Trot 21 000€ 2 600m Reims Ethano de Bouteau Attelé
15/04/18 5 Trot 12 000€ 2 175m Saint Omer Fylena d'Isques 1'18"8 Attelé
15/04/18 5 Trot 12 000€ 2 175m Saint Omer Filou du Lion 1'20"5 Attelé
15/04/18 7 Trot 32 000€ 2 650m Saint Omer Venus du Rosay 1'15"3 Attelé
15/04/18 5 Trot 15 000€ 2 625m Saint Omer Easy de Navary 1'18"7 Attelé
15/04/18 9 Trot 17 000€ 2 625m Saint Omer Balladine d'Alci 1'17"4 Attelé
20/04/18 2 Trot 15 000€ 2 900m Amiens Dollar de l'Iton 1'17"0 Attelé
20/04/18 4 Trot 15 000€ 2 400m Amiens Eole Chatho 1'16"5 Attelé
20/04/18 7 Trot 28 000€ 2 400m Amiens Viva Well 1'14"8 Attelé
20/04/18 D Trot 15 000€ 2 400m Amiens Cyrus d'Alci Attelé
20/04/18 D Trot 13 000€ 2 400m Amiens Fiona la Jarrie Attelé
22/04/18 D Trot 13 000€ 2 900m Arras Elite d'Alci Attelé
22/04/18 5 Trot 13 000€ 2 900m Arras Extra de la Loge Attelé
22/04/18 2 Trot 13 000€ 2 925m Arras Dulcinee d'Arbaz Attelé
29/04/18 6 Trot 15 000€ 2 700m La Capelle Flying Jet 1'19"1 Attelé
29/04/18 7 Trot 13 000€ 2 700m La Capelle Eoliathira 1'17"4 Attelé
29/04/18 8 Trot 32 000€ 2 775m La Capelle Valto 1'15"5 Attelé
29/04/18 0 Trot 13 000€ 2 700m La Capelle Easy de Navary Attelé
29/04/18 D Trot 15 000€ 2 700m La Capelle Cannelle d'As Attelé
01/05/18 5 Trot 11 000€ 2 175m Saint Omer Filou des Vallees 1'19"8 Attelé
01/05/18 4 Trot 11 000€ 2 175m Saint Omer Filou du Lion 1'20"9 Attelé
01/05/18 D Trot 11 000€ 2 175m Saint Omer Fiona la Jarrie Attelé
01/05/18 9 Trot 22 000€ 2 650m Saint Omer Viva Well 1'18"0 Attelé
01/05/18 2 Trot 15 000€ 2 650m Saint Omer Diego du Houlet 1'18"4 Attelé
01/05/18 5 Trot 12 000€ 2 625m Saint Omer Elsa d'Amor 1'21"4 Attelé
06/05/18 D Trot 19 000€ 2 700m La Capelle Etoile Dubonheur Attelé
06/05/18 8 Trot 18 000€ 2 750m La Capelle Dryade des Salines 1'16"1 Attelé
06/05/18 3 Trot 22 000€ 2 775m La Capelle Cannelle d'As 1'16"2 Attelé
06/05/18 8 Trot 22 000€ 2 750m La Capelle Cristal du Pont 1'15"8 Attelé
07/05/18 6 Trot 21 000€ 2 400m Amiens Didji Boy 1'15"0 Attelé
07/05/18 6 Trot 20 000€ 2 900m Amiens Elza Piquenard 1'18"3 Attelé
07/05/18 7 Trot 20 000€ 2 900m Amiens Eole Chatho 1'19"0 Attelé
07/05/18 0 Trot 16 000€ 2 400m Amiens Falco du Texas Attelé
07/05/18 2 Trot 16 000€ 2 400m Amiens Fara de Bertrange 1'19"0 Attelé
08/05/18 D Trot 12 000€ 2 900m Arras Fortunata Attelé
08/05/18 4 Trot 12 000€ 2 900m Arras Farca Sly TNC Attelé
08/05/18 D Trot 13 000€ 2 900m Arras Eleve Attelé
08/05/18 D Trot 13 000€ 2 900m Arras Elite d'Alci Attelé